sensor_id;sensor_type;location;lat;lon;timestamp;pressure;altitude;pressure_sealevel;temperature;humidity
21236;BME280;10775;42.678;26.324;2023-01-28T00:00:25;97858.78;;;3.19;89.92
21236;BME280;10775;42.678;26.324;2023-01-28T00:02:51;97870.81;;;3.26;95.55
21236;BME280;10775;42.678;26.324;2023-01-28T00:05:17;97864.84;;;3.15;91.44
21236;BME280;10775;42.678;26.324;2023-01-28T00:07:42;97868.28;;;3.07;90.51
21236;BME280;10775;42.678;26.324;2023-01-28T00:10:08;97857.13;;;2.95;89.68
21236;BME280;10775;42.678;26.324;2023-01-28T00:12:34;97876.06;;;3.02;90.02
21236;BME280;10775;42.678;26.324;2023-01-28T00:15:00;97884.69;;;2.86;87.19
21236;BME280;10775;42.678;26.324;2023-01-28T00:17:25;97886.44;;;2.82;87.12
21236;BME280;10775;42.678;26.324;2023-01-28T00:19:51;97893.28;;;2.86;89.70
21236;BME280;10775;42.678;26.324;2023-01-28T00:22:17;97899.31;;;2.83;86.68
21236;BME280;10775;42.678;26.324;2023-01-28T00:24:42;97898.47;;;2.91;88.67
21236;BME280;10775;42.678;26.324;2023-01-28T00:27:08;97890.69;;;3.04;97.10
21236;BME280;10775;42.678;26.324;2023-01-28T00:29:33;97901.03;;;2.95;89.28
21236;BME280;10775;42.678;26.324;2023-01-28T00:31:59;97906.97;;;3.31;100.00
21236;BME280;10775;42.678;26.324;2023-01-28T00:34:25;97903.56;;;3.17;93.04
21236;BME280;10775;42.678;26.324;2023-01-28T00:36:50;97910.47;;;3.15;96.20
21236;BME280;10775;42.678;26.324;2023-01-28T00:39:23;97911.31;;;3.09;91.46
21236;BME280;10775;42.678;26.324;2023-01-28T00:41:49;97918.25;;;2.96;90.11
21236;BME280;10775;42.678;26.324;2023-01-28T00:44:15;97913.09;;;2.87;90.04
21236;BME280;10775;42.678;26.324;2023-01-28T00:46:41;97916.47;;;3.17;95.16
21236;BME280;10775;42.678;26.324;2023-01-28T00:49:06;97932.03;;;3.00;94.85
21236;BME280;10775;42.678;26.324;2023-01-28T00:51:32;97937.19;;;2.94;94.18
21236;BME280;10775;42.678;26.324;2023-01-28T00:53:58;97936.28;;;3.09;97.30
21236;BME280;10775;42.678;26.324;2023-01-28T00:56:24;97928.56;;;3.15;100.00
21236;BME280;10775;42.678;26.324;2023-01-28T00:58:49;97935.44;;;3.13;99.70
21236;BME280;10775;42.678;26.324;2023-01-28T01:01:19;97931.97;;;3.09;100.00
21236;BME280;10775;42.678;26.324;2023-01-28T01:03:46;97932.88;;;2.83;91.10
21236;BME280;10775;42.678;26.324;2023-01-28T01:06:13;97939.69;;;3.34;100.00
21236;BME280;10775;42.678;26.324;2023-01-28T01:08:39;97932.84;;;3.16;100.00
21236;BME280;10775;42.678;26.324;2023-01-28T01:11:08;97926.81;;;3.20;100.00
21236;BME280;10775;42.678;26.324;2023-01-28T01:13:35;97925.03;;;3.37;100.00
21236;BME280;10775;42.678;26.324;2023-01-28T01:16:21;97923.97;;;3.86;100.00
21236;BME280;10775;42.678;26.324;2023-01-28T01:18:49;97922.34;;;3.71;100.00
21236;BME280;10775;42.678;26.324;2023-01-28T01:21:17;97922.34;;;3.71;100.00
21236;BME280;10775;42.678;26.324;2023-01-28T01:23:43;97934.53;;;3.26;99.48
21236;BME280;10775;42.678;26.324;2023-01-28T01:26:09;97931.16;;;2.99;99.32
21236;BME280;10775;42.678;26.324;2023-01-28T01:28:35;97927.63;;;3.36;100.00
21236;BME280;10775;42.678;26.324;2023-01-28T01:31:21;97930.13;;;3.57;100.00
21236;BME280;10775;42.678;26.324;2023-01-28T01:33:49;97949.16;;;3.27;100.00
21236;BME280;10775;42.678;26.324;2023-01-28T01:36:16;97935.34;;;3.46;100.00
21236;BME280;10775;42.678;26.324;2023-01-28T01:38:44;97944.88;;;3.26;100.00
21236;BME280;10775;42.678;26.324;2023-01-28T01:41:22;97932.72;;;3.53;100.00
21236;BME280;10775;42.678;26.324;2023-01-28T01:43:52;97943.16;;;3.14;100.00
21236;BME280;10775;42.678;26.324;2023-01-28T01:49:11;97944.94;;;2.89;98.75
21236;BME280;10775;42.678;26.324;2023-01-28T01:51:39;97944.94;;;2.95;100.00
21236;BME280;10775;42.678;26.324;2023-01-28T01:54:05;97937.09;;;3.32;100.00
21236;BME280;10775;42.678;26.324;2023-01-28T01:56:36;97937.09;;;3.37;100.00
21236;BME280;10775;42.678;26.324;2023-01-28T01:59:03;97954.38;;;3.18;100.00
21236;BME280;10775;42.678;26.324;2023-01-28T02:01:30;97944.09;;;2.84;99.28
21236;BME280;10775;42.678;26.324;2023-01-28T02:04:04;97951.81;;;2.89;99.91
21236;BME280;10775;42.678;26.324;2023-01-28T02:06:31;97945.78;;;3.13;100.00
21236;BME280;10775;42.678;26.324;2023-01-28T02:08:58;97955.25;;;3.01;100.00
21236;BME280;10775;42.678;26.324;2023-01-28T02:11:29;97956.16;;;2.79;100.00
21236;BME280;10775;42.678;26.324;2023-01-28T02:13:57;97959.56;;;2.81;100.00
21236;BME280;10775;42.678;26.324;2023-01-28T02:16:25;97962.16;;;2.95;100.00
21236;BME280;10775;42.678;26.324;2023-01-28T02:18:52;97955.28;;;2.88;100.00
21236;BME280;10775;42.678;26.324;2023-01-28T02:29:57;97963.00;;;2.86;100.00
21236;BME280;10775;42.678;26.324;2023-01-28T02:32:54;97956.09;;;3.16;100.00
21236;BME280;10775;42.678;26.324;2023-01-28T02:35:28;97963.88;;;2.73;97.54
21236;BME280;10775;42.678;26.324;2023-01-28T02:38:08;97953.53;;;2.68;100.00
21236;BME280;10775;42.678;26.324;2023-01-28T02:40:38;97962.16;;;2.95;100.00
21236;BME280;10775;42.678;26.324;2023-01-28T02:43:36;97963.00;;;2.55;94.69
21236;BME280;10775;42.678;26.324;2023-01-28T02:46:19;97960.44;;;2.65;100.00
21236;BME280;10775;42.678;26.324;2023-01-28T02:49:07;97968.19;;;2.43;93.36
21236;BME280;10775;42.678;26.324;2023-01-28T02:57:18;97978.47;;;2.40;93.71
21236;BME280;10775;42.678;26.324;2023-01-28T03:02:36;97968.16;;;2.34;92.29
21236;BME280;10775;42.678;26.324;2023-01-28T03:05:07;97969.91;;;2.56;100.00
21236;BME280;10775;42.678;26.324;2023-01-28T03:07:37;97968.16;;;2.42;94.17
21236;BME280;10775;42.678;26.324;2023-01-28T03:10:06;97975.03;;;2.35;93.46
21236;BME280;10775;42.678;26.324;2023-01-28T03:12:34;97976.78;;;2.56;100.00
21236;BME280;10775;42.678;26.324;2023-01-28T03:15:23;97974.19;;;2.47;94.66
21236;BME280;10775;42.678;26.324;2023-01-28T03:18:24;97992.28;;;2.48;93.63
21236;BME280;10775;42.678;26.324;2023-01-28T03:21:21;97988.78;;;2.31;91.63
21236;BME280;10775;42.678;26.324;2023-01-28T03:24:18;97978.50;;;2.43;97.84
21236;BME280;10775;42.678;26.324;2023-01-28T03:27:18;97969.91;;;2.41;98.23
21236;BME280;10775;42.678;26.324;2023-01-28T03:30:11;97981.06;;;2.34;92.33
21236;BME280;10775;42.678;26.324;2023-01-28T03:32:57;97982.78;;;2.29;93.88
21236;BME280;10775;42.678;26.324;2023-01-28T03:35:43;97962.13;;;2.21;91.69
21236;BME280;10775;42.678;26.324;2023-01-28T03:38:29;97960.38;;;2.25;91.75
21236;BME280;10775;42.678;26.324;2023-01-28T03:41:01;97981.03;;;2.22;90.51
21236;BME280;10775;42.678;26.324;2023-01-28T03:43:28;97987.91;;;2.24;91.56
21236;BME280;10775;42.678;26.324;2023-01-28T03:45:55;97996.53;;;2.23;91.19
21236;BME280;10775;42.678;26.324;2023-01-28T03:48:23;97987.91;;;2.15;91.57
21236;BME280;10775;42.678;26.324;2023-01-28T03:50:49;97988.81;;;2.43;100.00
21236;BME280;10775;42.678;26.324;2023-01-28T03:53:15;97996.56;;;2.35;92.43
21236;BME280;10775;42.678;26.324;2023-01-28T03:55:42;97993.06;;;2.20;92.42
21236;BME280;10775;42.678;26.324;2023-01-28T03:58:09;97984.50;;;2.36;95.39
21236;BME280;10775;42.678;26.324;2023-01-28T04:00:35;97988.75;;;2.17;91.38
21236;BME280;10775;42.678;26.324;2023-01-28T04:03:05;97999.97;;;2.30;96.11
21236;BME280;10775;42.678;26.324;2023-01-28T04:05:58;98000.00;;;2.33;97.69
21236;BME280;10775;42.678;26.324;2023-01-28T04:08:24;98005.94;;;2.16;91.53
21236;BME280;10775;42.678;26.324;2023-01-28T04:10:50;98022.34;;;2.28;99.73
21236;BME280;10775;42.678;26.324;2023-01-28T04:13:16;98028.31;;;2.27;93.51
21236;BME280;10775;42.678;26.324;2023-01-28T04:15:43;98026.56;;;2.16;93.01
21236;BME280;10775;42.678;26.324;2023-01-28T04:18:10;98035.19;;;2.18;91.47
21236;BME280;10775;42.678;26.324;2023-01-28T04:20:36;98032.63;;;2.23;94.81
21236;BME280;10775;42.678;26.324;2023-01-28T04:23:02;98048.91;;;2.11;90.71
21236;BME280;10775;42.678;26.324;2023-01-28T04:25:29;98045.50;;;2.12;93.84
21236;BME280;10775;42.678;26.324;2023-01-28T04:27:55;98042.88;;;2.09;90.88
21236;BME280;10775;42.678;26.324;2023-01-28T04:30:20;98028.28;;;2.08;91.00
21236;BME280;10775;42.678;26.324;2023-01-28T04:32:46;98042.88;;;2.09;92.11
21236;BME280;10775;42.678;26.324;2023-01-28T04:35:12;98046.41;;;2.28;100.00
21236;BME280;10775;42.678;26.324;2023-01-28T04:37:40;98058.44;;;2.34;98.20
21236;BME280;10775;42.678;26.324;2023-01-28T04:40:06;98061.88;;;2.34;100.00
21236;BME280;10775;42.678;26.324;2023-01-28T04:42:32;98054.06;;;2.02;92.00
21236;BME280;10775;42.678;26.324;2023-01-28T04:44:57;98062.69;;;2.20;95.44
21236;BME280;10775;42.678;26.324;2023-01-28T04:47:23;98068.69;;;2.14;94.00
21236;BME280;10775;42.678;26.324;2023-01-28T04:49:48;98073.81;;;2.03;94.22
21236;BME280;10775;42.678;26.324;2023-01-28T04:52:14;98067.78;;;1.95;91.96
21236;BME280;10775;42.678;26.324;2023-01-28T04:54:40;98078.91;;;1.88;91.28
21236;BME280;10775;42.678;26.324;2023-01-28T04:57:05;98072.84;;;1.80;90.68
21236;BME280;10775;42.678;26.324;2023-01-28T04:59:31;98078.84;;;1.80;92.07
21236;BME280;10775;42.678;26.324;2023-01-28T05:01:57;98073.75;;;1.88;93.58
21236;BME280;10775;42.678;26.324;2023-01-28T05:04:22;98087.63;;;2.17;99.67
21236;BME280;10775;42.678;26.324;2023-01-28T05:06:48;98079.78;;;1.96;93.51
21236;BME280;10775;42.678;26.324;2023-01-28T05:09:13;98090.06;;;1.87;93.05
21236;BME280;10775;42.678;26.324;2023-01-28T05:11:39;98090.22;;;2.17;100.00
21236;BME280;10775;42.678;26.324;2023-01-28T05:14:05;98096.25;;;2.26;100.00
21236;BME280;10775;42.678;26.324;2023-01-28T05:16:30;98095.38;;;2.21;100.00
21236;BME280;10775;42.678;26.324;2023-01-28T05:18:58;98092.63;;;1.84;94.66
21236;BME280;10775;42.678;26.324;2023-01-28T05:21:23;98102.16;;;1.97;100.00
21236;BME280;10775;42.678;26.324;2023-01-28T05:23:49;98100.47;;;2.02;100.00
21236;BME280;10775;42.678;26.324;2023-01-28T05:26:15;98093.66;;;2.20;100.00
21236;BME280;10775;42.678;26.324;2023-01-28T05:28:41;98101.56;;;2.75;100.00
21236;BME280;10775;42.678;26.324;2023-01-28T05:31:06;98099.72;;;2.28;100.00
21236;BME280;10775;42.678;26.324;2023-01-28T05:33:32;98101.34;;;2.10;100.00
21236;BME280;10775;42.678;26.324;2023-01-28T05:35:58;98112.41;;;1.88;94.41
21236;BME280;10775;42.678;26.324;2023-01-28T05:38:23;98113.31;;;1.99;100.00
21236;BME280;10775;42.678;26.324;2023-01-28T05:40:49;98133.09;;;1.99;96.87
21236;BME280;10775;42.678;26.324;2023-01-28T05:43:15;98134.78;;;1.93;96.95
21236;BME280;10775;42.678;26.324;2023-01-28T05:45:41;98140.78;;;1.89;94.75
21236;BME280;10775;42.678;26.324;2023-01-28T05:48:07;98132.22;;;1.92;94.05
21236;BME280;10775;42.678;26.324;2023-01-28T05:50:32;98126.13;;;1.81;92.44
21236;BME280;10775;42.678;26.324;2023-01-28T05:52:58;98139.94;;;1.90;96.03
21236;BME280;10775;42.678;26.324;2023-01-28T05:55:24;98151.94;;;1.87;92.45
21236;BME280;10775;42.678;26.324;2023-01-28T05:57:49;98165.81;;;2.07;98.66
21236;BME280;10775;42.678;26.324;2023-01-28T06:00:15;98152.06;;;2.08;98.68
21236;BME280;10775;42.678;26.324;2023-01-28T06:02:42;98168.31;;;1.95;92.89
21236;BME280;10775;42.678;26.324;2023-01-28T06:05:08;98178.59;;;1.90;93.39
21236;BME280;10775;42.678;26.324;2023-01-28T06:07:33;98176.09;;;2.00;94.80
21236;BME280;10775;42.678;26.324;2023-01-28T06:09:59;98175.41;;;2.36;100.00
21236;BME280;10775;42.678;26.324;2023-01-28T06:12:25;98173.00;;;2.71;100.00
21236;BME280;10775;42.678;26.324;2023-01-28T06:14:50;98166.16;;;2.87;100.00
21236;BME280;10775;42.678;26.324;2023-01-28T06:17:16;98184.03;;;2.38;100.00
21236;BME280;10775;42.678;26.324;2023-01-28T06:19:42;98181.53;;;2.66;100.00
21236;BME280;10775;42.678;26.324;2023-01-28T06:22:08;98190.22;;;2.77;100.00
21236;BME280;10775;42.678;26.324;2023-01-28T06:24:34;98178.19;;;2.93;100.00
21236;BME280;10775;42.678;26.324;2023-01-28T06:27:00;98187.69;;;2.89;100.00
21236;BME280;10775;42.678;26.324;2023-01-28T06:29:25;98179.84;;;2.68;100.00
21236;BME280;10775;42.678;26.324;2023-01-28T06:31:51;98185.94;;;2.99;100.00
21236;BME280;10775;42.678;26.324;2023-01-28T06:34:17;98195.47;;;3.15;100.00
21236;BME280;10775;42.678;26.324;2023-01-28T06:36:42;98191.97;;;2.96;100.00
21236;BME280;10775;42.678;26.324;2023-01-28T06:39:08;98197.78;;;2.40;98.24
21236;BME280;10775;42.678;26.324;2023-01-28T06:41:34;98214.00;;;2.13;100.00
21236;BME280;10775;42.678;26.324;2023-01-28T06:43:59;98208.78;;;2.05;97.20
21236;BME280;10775;42.678;26.324;2023-01-28T06:46:25;98219.13;;;2.08;99.23
21236;BME280;10775;42.678;26.324;2023-01-28T06:48:50;98223.34;;;1.99;96.55
21236;BME280;10775;42.678;26.324;2023-01-28T06:51:16;98240.63;;;2.13;100.00
21236;BME280;10775;42.678;26.324;2023-01-28T06:53:42;98239.66;;;1.99;98.87
21236;BME280;10775;42.678;26.324;2023-01-28T06:56:07;98233.59;;;1.89;97.87
21236;BME280;10775;42.678;26.324;2023-01-28T06:58:33;98234.66;;;2.17;100.00
21236;BME280;10775;42.678;26.324;2023-01-28T07:00:59;98250.03;;;2.02;100.00
21236;BME280;10775;42.678;26.324;2023-01-28T07:03:25;98228.56;;;2.09;100.00
21236;BME280;10775;42.678;26.324;2023-01-28T07:05:51;98227.06;;;2.44;100.00
21236;BME280;10775;42.678;26.324;2023-01-28T07:08:17;98231.41;;;2.54;100.00
21236;BME280;10775;42.678;26.324;2023-01-28T07:10:43;98230.44;;;2.33;99.96
21236;BME280;10775;42.678;26.324;2023-01-28T07:13:09;98231.22;;;2.22;98.90
21236;BME280;10775;42.678;26.324;2023-01-28T07:15:35;98235.47;;;2.12;97.69
21236;BME280;10775;42.678;26.324;2023-01-28T07:18:01;98223.44;;;2.11;94.16
21236;BME280;10775;42.678;26.324;2023-01-28T07:20:27;98244.06;;;2.11;92.96
21236;BME280;10775;42.678;26.324;2023-01-28T07:22:52;98251.78;;;2.08;96.98
21236;BME280;10775;42.678;26.324;2023-01-28T07:25:18;98253.66;;;2.30;94.69
21236;BME280;10775;42.678;26.324;2023-01-28T07:27:48;98250.28;;;2.45;97.45
21236;BME280;10775;42.678;26.324;2023-01-28T07:30:15;98244.44;;;2.80;100.00
21236;BME280;10775;42.678;26.324;2023-01-28T07:32:41;98254.69;;;2.58;98.11
21236;BME280;10775;42.678;26.324;2023-01-28T07:35:07;98253.66;;;2.35;91.50
21236;BME280;10775;42.678;26.324;2023-01-28T07:37:33;98247.63;;;2.34;92.20
21236;BME280;10775;42.678;26.324;2023-01-28T07:39:58;98254.59;;;2.48;95.22
21236;BME280;10775;42.678;26.324;2023-01-28T07:42:24;98247.78;;;2.60;94.33
21236;BME280;10775;42.678;26.324;2023-01-28T07:44:49;98260.59;;;2.44;92.39
21236;BME280;10775;42.678;26.324;2023-01-28T07:47:15;98271.00;;;2.54;93.24
21236;BME280;10775;42.678;26.324;2023-01-28T07:49:41;98263.13;;;2.37;90.63
21236;BME280;10775;42.678;26.324;2023-01-28T07:52:07;98270.03;;;2.40;92.76
21236;BME280;10775;42.678;26.324;2023-01-28T07:54:33;98265.75;;;2.42;94.71
21236;BME280;10775;42.678;26.324;2023-01-28T07:56:59;98268.41;;;2.51;93.93
21236;BME280;10775;42.678;26.324;2023-01-28T07:59:24;98276.72;;;2.07;90.73
21236;BME280;10775;42.678;26.324;2023-01-28T08:01:50;98282.75;;;2.14;91.16
21236;BME280;10775;42.678;26.324;2023-01-28T08:04:16;98275.03;;;2.12;91.17
21236;BME280;10775;42.678;26.324;2023-01-28T08:06:41;98275.97;;;2.24;92.16
21236;BME280;10775;42.678;26.324;2023-01-28T08:09:07;98258.88;;;2.38;91.56
21236;BME280;10775;42.678;26.324;2023-01-28T08:11:36;98280.34;;;2.38;89.15
21236;BME280;10775;42.678;26.324;2023-01-28T08:14:02;98282.13;;;2.46;89.75
21236;BME280;10775;42.678;26.324;2023-01-28T08:16:27;98281.25;;;2.45;88.85
21236;BME280;10775;42.678;26.324;2023-01-28T08:18:53;98282.06;;;2.36;88.52
21236;BME280;10775;42.678;26.324;2023-01-28T08:21:19;98283.72;;;2.25;86.91
21236;BME280;10775;42.678;26.324;2023-01-28T08:23:45;98289.78;;;2.35;89.07
21236;BME280;10775;42.678;26.324;2023-01-28T08:26:11;98293.31;;;2.49;89.71
21236;BME280;10775;42.678;26.324;2023-01-28T08:28:36;98292.53;;;2.61;89.48
21236;BME280;10775;42.678;26.324;2023-01-28T08:31:02;98295.75;;;2.26;86.91
21236;BME280;10775;42.678;26.324;2023-01-28T08:33:28;98288.13;;;2.43;89.03
21236;BME280;10775;42.678;26.324;2023-01-28T08:35:54;98282.22;;;2.61;87.60
21236;BME280;10775;42.678;26.324;2023-01-28T08:38:20;98302.03;;;2.70;89.62
21236;BME280;10775;42.678;26.324;2023-01-28T08:40:46;98288.28;;;2.72;88.05
21236;BME280;10775;42.678;26.324;2023-01-28T08:43:15;98289.16;;;2.74;86.72
21236;BME280;10775;42.678;26.324;2023-01-28T08:45:40;98295.25;;;2.87;85.77
21236;BME280;10775;42.678;26.324;2023-01-28T08:48:09;98305.66;;;3.09;90.87
21236;BME280;10775;42.678;26.324;2023-01-28T08:50:37;98301.38;;;3.17;87.51
21236;BME280;10775;42.678;26.324;2023-01-28T08:53:06;98302.13;;;2.91;84.76
21236;BME280;10775;42.678;26.324;2023-01-28T08:55:33;98302.16;;;2.93;91.75
21236;BME280;10775;42.678;26.324;2023-01-28T08:58:03;98303.94;;;3.08;87.02
21236;BME280;10775;42.678;26.324;2023-01-28T09:00:29;98307.41;;;3.13;85.98
21236;BME280;10775;42.678;26.324;2023-01-28T09:02:55;98300.59;;;3.36;85.32
21236;BME280;10775;42.678;26.324;2023-01-28T09:05:20;98299.69;;;3.22;84.59
21236;BME280;10775;42.678;26.324;2023-01-28T09:07:47;98303.97;;;3.17;83.36
21236;BME280;10775;42.678;26.324;2023-01-28T09:10:13;98310.06;;;3.33;85.81
21236;BME280;10775;42.678;26.324;2023-01-28T09:12:41;98299.81;;;3.63;86.31
21236;BME280;10775;42.678;26.324;2023-01-28T09:15:07;98304.06;;;3.43;82.67
21236;BME280;10775;42.678;26.324;2023-01-28T09:17:33;98304.91;;;3.33;81.75
21236;BME280;10775;42.678;26.324;2023-01-28T09:19:59;98310.09;;;3.40;85.87
21236;BME280;10775;42.678;26.324;2023-01-28T09:22:25;98310.94;;;3.39;83.41
21236;BME280;10775;42.678;26.324;2023-01-28T09:24:51;98314.47;;;3.72;84.45
21236;BME280;10775;42.678;26.324;2023-01-28T09:27:16;98323.06;;;3.63;82.98
21236;BME280;10775;42.678;26.324;2023-01-28T09:29:42;98317.88;;;3.56;83.35
21236;BME280;10775;42.678;26.324;2023-01-28T09:32:08;98308.41;;;3.53;82.32
21236;BME280;10775;42.678;26.324;2023-01-28T09:34:34;98319.63;;;3.66;90.31
21236;BME280;10775;42.678;26.324;2023-01-28T09:36:59;98310.16;;;3.83;87.83
21236;BME280;10775;42.678;26.324;2023-01-28T09:39:25;98311.84;;;3.63;83.17
21236;BME280;10775;42.678;26.324;2023-01-28T09:47:49;98326.41;;;3.29;83.11
21236;BME280;10775;42.678;26.324;2023-01-28T09:50:37;98329.06;;;3.45;83.29
21236;BME280;10775;42.678;26.324;2023-01-28T09:53:25;98332.44;;;3.32;82.18
21236;BME280;10775;42.678;26.324;2023-01-28T09:56:05;98325.59;;;3.45;90.42
21236;BME280;10775;42.678;26.324;2023-01-28T09:58:32;98319.50;;;3.20;82.75
21236;BME280;10775;42.678;26.324;2023-01-28T10:06:33;98311.88;;;3.66;84.88
21236;BME280;10775;42.678;26.324;2023-01-28T10:09:20;98319.66;;;3.97;84.40
21236;BME280;10775;42.678;26.324;2023-01-28T10:14:55;98315.34;;;3.71;81.97
21236;BME280;10775;42.678;26.324;2023-01-28T10:23:03;98305.88;;;4.30;81.23
21236;BME280;10775;42.678;26.324;2023-01-28T10:25:31;98308.47;;;4.10;79.28
21236;BME280;10775;42.678;26.324;2023-01-28T10:28:00;98304.97;;;3.83;79.18
21236;BME280;10775;42.678;26.324;2023-01-28T10:30:29;98307.59;;;4.32;87.72
21236;BME280;10775;42.678;26.324;2023-01-28T10:33:00;98309.31;;;4.21;78.67
21236;BME280;10775;42.678;26.324;2023-01-28T10:35:31;98306.72;;;4.00;79.42
21236;BME280;10775;42.678;26.324;2023-01-28T10:38:04;98325.63;;;3.56;78.06
21236;BME280;10775;42.678;26.324;2023-01-28T10:40:33;98317.88;;;3.56;80.43
21236;BME280;10775;42.678;26.324;2023-01-28T10:42:59;98306.66;;;3.51;79.72
21236;BME280;10775;42.678;26.324;2023-01-28T10:45:38;98303.28;;;3.98;81.73
21236;BME280;10775;42.678;26.324;2023-01-28T10:51:12;98307.56;;;3.91;77.89
21236;BME280;10775;42.678;26.324;2023-01-28T10:53:41;98306.72;;;3.84;78.15
21236;BME280;10775;42.678;26.324;2023-01-28T10:56:16;98294.66;;;3.89;78.18
21236;BME280;10775;42.678;26.324;2023-01-28T10:59:03;98299.81;;;4.11;77.30
21236;BME280;10775;42.678;26.324;2023-01-28T11:01:44;98308.44;;;4.19;76.59
21236;BME280;10775;42.678;26.324;2023-01-28T11:04:22;98304.13;;;4.09;76.61
21236;BME280;10775;42.678;26.324;2023-01-28T11:06:55;98314.47;;;4.21;76.96
21236;BME280;10775;42.678;26.324;2023-01-28T11:09:44;98312.75;;;4.00;76.01
21236;BME280;10775;42.678;26.324;2023-01-28T11:14:48;98314.47;;;4.21;75.65
21236;BME280;10775;42.678;26.324;2023-01-28T11:17:15;98325.66;;;4.74;78.66
21236;BME280;10775;42.678;26.324;2023-01-28T11:19:42;98326.53;;;4.64;75.42
21236;BME280;10775;42.678;26.324;2023-01-28T11:25:00;98338.63;;;4.54;75.42
21236;BME280;10775;42.678;26.324;2023-01-28T11:27:31;98342.06;;;4.27;75.93
21236;BME280;10775;42.678;26.324;2023-01-28T11:29:59;98337.75;;;4.40;76.68
21236;BME280;10775;42.678;26.324;2023-01-28T11:32:30;98346.38;;;4.29;76.84
21236;BME280;10775;42.678;26.324;2023-01-28T11:34:56;98348.13;;;4.29;77.73
21236;BME280;10775;42.678;26.324;2023-01-28T11:37:25;98356.75;;;4.31;77.42
21236;BME280;10775;42.678;26.324;2023-01-28T11:40:15;98361.94;;;4.12;76.82
21236;BME280;10775;42.678;26.324;2023-01-28T11:42:50;98367.94;;;4.04;78.24
21236;BME280;10775;42.678;26.324;2023-01-28T11:50:56;98359.34;;;4.34;79.66
21236;BME280;10775;42.678;26.324;2023-01-28T11:59:23;98365.38;;;4.10;81.10
21236;BME280;10775;42.678;26.324;2023-01-28T12:13:22;98378.22;;;3.61;81.94
21236;BME280;10775;42.678;26.324;2023-01-28T12:33:04;98373.97;;;3.89;83.53
21236;BME280;10775;42.678;26.324;2023-01-28T12:38:55;98376.59;;;4.36;85.55
21236;BME280;10775;42.678;26.324;2023-01-28T12:41:40;98378.28;;;4.65;86.84
21236;BME280;10775;42.678;26.324;2023-01-28T12:44:19;98379.19;;;4.12;80.85
21236;BME280;10775;42.678;26.324;2023-01-28T12:46:55;98376.56;;;3.81;81.82
21236;BME280;10775;42.678;26.324;2023-01-28T12:49:40;98376.53;;;3.78;83.58
21236;BME280;10775;42.678;26.324;2023-01-28T12:57:37;98378.25;;;3.79;83.04
21236;BME280;10775;42.678;26.324;2023-01-28T13:00:24;98385.97;;;3.64;83.26
21236;BME280;10775;42.678;26.324;2023-01-28T13:03:16;98392.91;;;3.83;85.54
21236;BME280;10775;42.678;26.324;2023-01-28T13:05:54;98386.03;;;3.76;83.66
21236;BME280;10775;42.678;26.324;2023-01-28T13:08:25;98391.09;;;3.55;83.71
21236;BME280;10775;42.678;26.324;2023-01-28T13:10:52;98395.41;;;3.49;84.91
21236;BME280;10775;42.678;26.324;2023-01-28T13:13:30;98402.28;;;3.43;84.05
21236;BME280;10775;42.678;26.324;2023-01-28T13:15:56;98401.50;;;3.61;86.98
21236;BME280;10775;42.678;26.324;2023-01-28T13:21:50;98410.00;;;3.35;84.44
21236;BME280;10775;42.678;26.324;2023-01-28T13:26:50;98415.19;;;3.44;89.17
21236;BME280;10775;42.678;26.324;2023-01-28T13:29:18;98432.38;;;3.32;84.95
21236;BME280;10775;42.678;26.324;2023-01-28T13:31:48;98428.09;;;3.35;86.41
21236;BME280;10775;42.678;26.324;2023-01-28T13:34:30;98429.72;;;3.15;85.93
21236;BME280;10775;42.678;26.324;2023-01-28T13:37:06;98433.13;;;3.14;86.28
21236;BME280;10775;42.678;26.324;2023-01-28T13:39:38;98438.25;;;3.04;85.70
21236;BME280;10775;42.678;26.324;2023-01-28T13:42:08;98438.22;;;3.01;86.07
21236;BME280;10775;42.678;26.324;2023-01-28T13:44:35;98437.47;;;3.19;86.77
21236;BME280;10775;42.678;26.324;2023-01-28T13:49:37;98446.00;;;3.03;85.26
21236;BME280;10775;42.678;26.324;2023-01-28T13:54:37;98444.28;;;3.07;85.72
21236;BME280;10775;42.678;26.324;2023-01-28T14:08:37;98452.22;;;3.39;86.60
21236;BME280;10775;42.678;26.324;2023-01-28T14:16:18;98448.91;;;3.70;86.82
21236;BME280;10775;42.678;26.324;2023-01-28T14:18:47;98455.81;;;3.70;87.01
21236;BME280;10775;42.678;26.324;2023-01-28T14:21:20;98451.47;;;3.64;84.30
21236;BME280;10775;42.678;26.324;2023-01-28T14:23:52;98458.34;;;3.62;87.55
21236;BME280;10775;42.678;26.324;2023-01-28T14:31:29;98470.31;;;3.39;84.83
21236;BME280;10775;42.678;26.324;2023-01-28T14:34:21;98472.97;;;3.48;87.18
21236;BME280;10775;42.678;26.324;2023-01-28T14:36:48;98486.78;;;3.59;84.92
21236;BME280;10775;42.678;26.324;2023-01-28T14:39:20;98477.19;;;3.34;83.36
21236;BME280;10775;42.678;26.324;2023-01-28T14:41:48;98477.16;;;3.32;83.97
21236;BME280;10775;42.678;26.324;2023-01-28T14:44:37;98475.53;;;3.46;85.51
21236;BME280;10775;42.678;26.324;2023-01-28T14:56:16;98476.16;;;3.09;85.28
21236;BME280;10775;42.678;26.324;2023-01-28T14:58:52;98489.88;;;3.01;86.13
21236;BME280;10775;42.678;26.324;2023-01-28T15:01:22;98488.13;;;2.99;86.00
21236;BME280;10775;42.678;26.324;2023-01-28T15:03:48;98491.59;;;3.04;85.88
21236;BME280;10775;42.678;26.324;2023-01-28T15:06:17;98494.19;;;3.02;87.47
21236;BME280;10775;42.678;26.324;2023-01-28T15:08:45;98496.75;;;2.98;88.48
21236;BME280;10775;42.678;26.324;2023-01-28T15:11:14;98500.13;;;2.89;87.48
21236;BME280;10775;42.678;26.324;2023-01-28T15:13:49;98503.72;;;3.10;98.79
21236;BME280;10775;42.678;26.324;2023-01-28T15:16:27;98512.22;;;2.95;88.71
21236;BME280;10775;42.678;26.324;2023-01-28T15:18:55;98500.91;;;2.79;88.34
21236;BME280;10775;42.678;26.324;2023-01-28T15:21:24;98513.75;;;2.71;88.85
21236;BME280;10775;42.678;26.324;2023-01-28T15:23:52;98522.44;;;2.82;92.28
21236;BME280;10775;42.678;26.324;2023-01-28T15:26:22;98519.03;;;2.85;89.99
21236;BME280;10775;42.678;26.324;2023-01-28T15:28:50;98522.38;;;2.72;89.45